Accueil
METAR-TAF:

METAR-TAF

Aéroports :

Chièvres, Belgique

Base aérienne de Chièvres

latitude: 50-34N, longitude: 003-50E, altitude: 60 m

Observation

Le bulletin a été fait il y a 37 minutes, à 10:25 UTC
Vent 15 kt de sud
Température 11°C
Humidité 76%
Pression 1008 hPa
Visibilité 10 km ou plus

METAR: EBCV 221025Z AUTO 19015KT 9999 NCD 11/07 Q1008 BLU

Heure: 12:02 (11:02 UTC)

Prévision

Le bulletin a été fait il y a 2 heures et 21 minutes, à 08:41 UTC
Prévision valable du 22 à 10 UTC au 22 à 19 UTC
Vent 12 kt de sud/sud-ouest
Visibilité 10 km ou plus
Nuages fragmentés à une hauteur de 2500 ft
Evoluant progressivement
du 22 à 10 UTC au 22 à 12 UTC
Vent 15 kt de sud
Visibilité 10 km ou plus
Nuages épars à une hauteur de 3000 ft
Evoluant progressivement
du 22 à 12 UTC au 22 à 14 UTC
Ciel clair

TAF: EBCV 220841Z 2210/2219 21012KT 9999 BKN025 BECMG 2210/2212 19015KT 9999 SCT030 BECMG 2212/2214 SKC BY EBWM

Observations et prévisions météorologiques de plus de 4000 aéroports (messages METAR et TAF).

Les stations disponibles sont représentées par des disques jaunes et rouges sur la carte.

Passer la souris dessus pour voir le nom de la station.

Cliquer dessus pour voir les observations et prévisions météorologiques.

Pour changer de carte: cliquez sur les boutons verts avec une croix noire pour zoomer, sur le bouton vert avec un tiret pour effectuer un zoom arrière, ou sur les flèches vertes pour les cartes adjacentes.


METAR-TAF: